createdAt,value
2022-08-22T00:02:46.587Z,5.65
2022-08-22T00:03:15.188Z,12.60
2022-08-22T00:05:54.850Z,15.98
2022-08-22T00:08:41.237Z,16.40
2022-08-22T00:11:28.378Z,19.73
2022-08-22T00:14:15.689Z,16.90
2022-08-22T00:17:02.746Z,17.90
2022-08-22T00:19:46.530Z,17.65
2022-08-22T00:22:38.096Z,16.75
2022-08-22T00:25:41.917Z,22.98
2022-08-22T00:28:26.240Z,22.32
2022-08-22T00:31:19.350Z,22.98
2022-08-22T00:34:16.824Z,26.80
2022-08-22T00:37:09.697Z,19.73
2022-08-22T00:39:50.955Z,20.85
2022-08-22T00:42:38.455Z,26.15
2022-08-22T00:45:23.345Z,22.87
2022-08-22T00:48:14.781Z,30.35
2022-08-22T00:50:53.007Z,26.40
2022-08-22T00:53:28.509Z,23.92
2022-08-22T00:56:38.298Z,24.02
2022-08-22T00:59:35.952Z,28.07
2022-08-22T01:02:22.990Z,30.65
2022-08-22T01:05:01.103Z,28.75
2022-08-22T01:07:39.078Z,28.60
2022-08-22T01:10:15.062Z,29.48
2022-08-22T01:12:59.240Z,32.33
2022-08-22T01:15:34.450Z,34.58
2022-08-22T01:18:39.530Z,35.25
2022-08-22T01:21:24.325Z,37.40
2022-08-22T01:24:16.216Z,32.88
2022-08-22T01:27:24.175Z,27.73
2022-08-22T01:30:08.185Z,29.55
2022-08-22T01:33:04.261Z,37.13
2022-08-22T01:35:45.109Z,34.33
2022-08-22T01:38:42.534Z,35.52
2022-08-22T01:41:36.907Z,37.20
2022-08-22T01:44:18.089Z,31.73
2022-08-22T01:46:56.351Z,28.20
2022-08-22T01:49:40.339Z,27.93
2022-08-22T01:52:36.269Z,29.82
2022-08-22T01:55:14.359Z,36.45
2022-08-22T01:58:04.225Z,36.25
2022-08-22T02:00:39.192Z,32.58
2022-08-22T02:03:26.329Z,36.10
2022-08-22T02:06:16.275Z,38.30
2022-08-22T02:09:09.794Z,36.00
2022-08-22T02:11:47.555Z,35.05
2022-08-22T02:14:27.067Z,37.17
2022-08-22T02:17:20.021Z,34.13
2022-08-22T02:20:00.980Z,32.90
2022-08-22T02:22:57.650Z,34.60
2022-08-22T02:25:32.840Z,33.88
2022-08-22T02:28:13.689Z,33.78
2022-08-22T02:30:57.610Z,33.78
2022-08-22T02:33:53.178Z,40.05
2022-08-22T02:36:37.464Z,36.85
2022-08-22T02:39:30.735Z,45.63
2022-08-22T02:42:23.828Z,38.63
2022-08-22T02:45:21.895Z,41.63
2022-08-22T02:48:14.672Z,37.13
2022-08-22T02:50:55.269Z,35.28
2022-08-22T02:53:52.788Z,42.93
2022-08-22T02:56:27.723Z,47.55
2022-08-22T02:59:14.893Z,35.55
2022-08-22T03:01:48.902Z,43.55
2022-08-22T03:04:27.131Z,44.45
2022-08-22T03:07:16.959Z,46.00
2022-08-22T03:10:11.107Z,43.33
2022-08-22T03:13:04.533Z,43.55
2022-08-22T03:15:39.641Z,43.08
2022-08-22T03:18:19.477Z,43.55
2022-08-22T03:20:54.901Z,44.20
2022-08-22T03:23:41.913Z,41.05
2022-08-22T03:26:20.354Z,43.65
2022-08-22T03:28:59.861Z,49.25
2022-08-22T03:31:32.898Z,48.38
2022-08-22T03:34:27.150Z,44.67
2022-08-22T03:37:02.304Z,48.50
2022-08-22T03:40:01.494Z,49.03
2022-08-22T03:42:58.122Z,47.50
2022-08-22T03:45:51.486Z,46.50
2022-08-22T03:48:36.865Z,47.67
2022-08-22T03:51:21.489Z,48.65
2022-08-22T03:54:30.538Z,46.70
2022-08-22T03:57:27.738Z,43.98
2022-08-22T04:00:33.900Z,48.40
2022-08-22T04:03:08.908Z,45.35
2022-08-22T04:05:54.433Z,46.00
2022-08-22T04:08:43.782Z,53.05
2022-08-22T04:11:27.215Z,46.40
2022-08-22T04:14:21.580Z,40.03
2022-08-22T04:17:21.376Z,50.38
2022-08-22T04:20:27.925Z,46.88
2022-08-22T04:23:11.742Z,43.60
2022-08-22T04:25:56.108Z,42.58
2022-08-22T04:28:41.643Z,56.83
2022-08-22T04:31:17.712Z,53.25
2022-08-22T04:34:04.495Z,48.73
2022-08-22T04:36:48.905Z,47.73
2022-08-22T04:39:38.943Z,49.25
2022-08-22T04:42:36.904Z,60.12
2022-08-22T04:44:59.097Z,45.67
2022-08-22T04:47:39.012Z,51.85
2022-08-22T04:50:24.638Z,49.03
2022-08-22T04:53:15.504Z,52.30
2022-08-22T04:56:07.702Z,51.13
2022-08-22T04:59:00.629Z,52.62
2022-08-22T05:01:49.973Z,45.67
2022-08-22T05:04:28.063Z,55.05
2022-08-22T05:07:09.280Z,54.05
2022-08-22T05:09:44.463Z,50.52
2022-08-22T05:12:22.522Z,57.85
2022-08-22T05:14:58.083Z,53.98
2022-08-22T05:17:34.393Z,51.30
2022-08-22T05:20:10.338Z,52.05
2022-08-22T05:22:45.582Z,51.23
2022-08-22T05:25:21.009Z,52.17
2022-08-22T05:27:56.754Z,48.55
2022-08-22T05:30:31.494Z,49.20
2022-08-22T05:33:09.265Z,54.45
2022-08-22T05:35:53.435Z,61.05
2022-08-22T05:38:28.026Z,51.40
2022-08-22T05:41:10.936Z,53.95
2022-08-22T05:43:45.222Z,57.95
2022-08-22T05:46:27.312Z,56.85
2022-08-22T05:49:04.008Z,60.43
2022-08-22T05:51:45.178Z,67.22
2022-08-22T05:54:21.747Z,66.87
2022-08-22T05:57:07.814Z,67.87
2022-08-22T05:59:42.053Z,74.40
2022-08-22T06:02:17.104Z,67.32
2022-08-22T06:04:52.077Z,67.72
2022-08-22T06:07:33.103Z,70.22
2022-08-22T06:10:29.858Z,73.55
2022-08-22T06:13:23.577Z,67.03
2022-08-22T06:16:00.368Z,69.97
2022-08-22T06:18:34.196Z,68.50
2022-08-22T06:21:21.231Z,69.42
2022-08-22T06:23:59.393Z,68.17
2022-08-22T06:26:35.310Z,66.50
2022-08-22T06:29:10.577Z,74.05
2022-08-22T06:31:50.725Z,68.00
2022-08-22T06:34:33.723Z,72.32
2022-08-22T06:37:10.028Z,59.38
2022-08-22T06:39:46.155Z,56.20
2022-08-22T06:42:22.983Z,76.42
2022-08-22T06:44:58.658Z,74.45
2022-08-22T06:47:35.957Z,62.53
2022-08-22T06:50:14.504Z,67.85
2022-08-22T06:52:59.717Z,68.95
2022-08-22T06:55:33.167Z,69.22
2022-08-22T06:58:23.886Z,65.47
2022-08-22T07:01:12.270Z,65.60
2022-08-22T07:03:48.353Z,68.57
2022-08-22T07:06:31.325Z,72.42
2022-08-22T07:09:06.912Z,71.62
2022-08-22T07:11:43.232Z,67.35
2022-08-22T07:14:18.155Z,70.40
2022-08-22T07:16:57.441Z,70.50
2022-08-22T07:19:41.885Z,67.60
2022-08-22T07:22:20.141Z,75.72
2022-08-22T07:25:01.262Z,73.70
2022-08-22T07:27:48.850Z,74.53
2022-08-22T07:30:28.166Z,70.10
2022-08-22T07:33:25.781Z,62.70
2022-08-22T07:35:53.285Z,58.23
2022-08-22T07:38:31.335Z,62.67
2022-08-22T07:41:27.600Z,64.42
2022-08-22T07:44:06.801Z,74.67
2022-08-22T07:46:43.026Z,66.67
2022-08-22T07:49:24.838Z,60.28
2022-08-22T07:52:00.292Z,56.83
2022-08-22T07:54:44.820Z,51.42
2022-08-22T07:57:29.966Z,54.65
2022-08-22T08:00:04.522Z,58.15
2022-08-22T08:02:42.365Z,59.88
2022-08-22T08:05:16.391Z,59.38
2022-08-22T08:07:52.862Z,54.98
2022-08-22T08:10:31.763Z,58.58
2022-08-22T08:13:06.811Z,57.40
2022-08-22T08:15:42.753Z,58.40
2022-08-22T08:18:19.602Z,57.60
2022-08-22T08:20:55.975Z,66.47
2022-08-22T08:23:31.492Z,64.75
2022-08-22T08:26:06.589Z,72.82
2022-08-22T08:28:44.825Z,81.15
2022-08-22T08:31:23.901Z,70.05
2022-08-22T08:34:06.171Z,86.22
2022-08-22T08:36:41.729Z,85.72
2022-08-22T08:39:35.153Z,94.60
2022-08-22T08:42:18.561Z,88.85
2022-08-22T08:44:54.821Z,81.05
2022-08-22T08:47:45.040Z,90.25
2022-08-22T08:50:43.286Z,95.03
2022-08-22T08:53:44.257Z,86.63
2022-08-22T08:56:29.005Z,78.15
2022-08-22T08:59:20.799Z,81.55
2022-08-22T09:02:23.903Z,70.28
2022-08-22T09:05:05.580Z,70.75
2022-08-22T09:07:44.334Z,76.20
2022-08-22T09:10:43.554Z,72.50
2022-08-22T09:13:28.404Z,76.92
2022-08-22T09:16:09.930Z,88.90
2022-08-22T09:18:51.814Z,80.42
2022-08-22T09:21:31.440Z,55.50
2022-08-22T09:24:23.449Z,55.98
2022-08-22T09:27:08.764Z,63.85
2022-08-22T09:32:33.907Z,56.98
2022-08-22T09:35:31.239Z,40.08
2022-08-22T09:38:23.906Z,44.03
2022-08-22T09:41:05.354Z,37.38
2022-08-22T09:43:44.101Z,43.33
2022-08-22T09:46:31.617Z,56.18
2022-08-22T09:49:16.558Z,51.70
2022-08-22T09:52:04.820Z,53.30
2022-08-22T09:54:39.270Z,52.67
2022-08-22T09:57:23.657Z,53.80
2022-08-22T10:00:10.841Z,45.03
2022-08-22T10:03:14.666Z,55.20
2022-08-22T10:06:10.240Z,47.17
2022-08-22T10:08:50.765Z,40.88
2022-08-22T10:11:46.873Z,40.58
2022-08-22T10:14:31.433Z,34.80
2022-08-22T10:17:22.324Z,38.05
2022-08-22T10:19:58.813Z,35.38
2022-08-22T10:22:47.689Z,38.88
2022-08-22T10:25:32.363Z,34.43
2022-08-22T10:28:23.132Z,35.10
2022-08-22T10:31:17.019Z,28.38
2022-08-22T10:34:09.478Z,27.58
2022-08-22T10:36:53.293Z,31.33
2022-08-22T10:39:30.210Z,28.52
2022-08-22T10:42:09.917Z,33.88
2022-08-22T10:45:00.399Z,29.72
2022-08-22T10:47:42.857Z,35.30
2022-08-22T10:50:20.173Z,35.00
2022-08-22T10:53:19.337Z,29.23
2022-08-22T10:55:57.001Z,25.30
2022-08-22T10:58:32.441Z,26.20
2022-08-22T11:01:37.141Z,28.40
2022-08-22T11:03:55.761Z,29.52
2022-08-22T11:06:33.733Z,35.20
2022-08-22T11:09:35.812Z,25.88
2022-08-22T11:12:19.393Z,25.32
2022-08-22T11:15:08.072Z,21.00
2022-08-22T11:18:07.477Z,20.32
2022-08-22T11:21:02.425Z,34.20
2022-08-22T11:23:46.396Z,25.27
2022-08-22T11:26:50.465Z,24.25
2022-08-22T11:29:25.829Z,24.67
2022-08-22T11:32:19.449Z,20.77
2022-08-22T11:35:01.153Z,21.33
2022-08-22T11:37:48.870Z,20.77
2022-08-22T11:40:25.918Z,16.32
2022-08-22T11:43:03.161Z,16.42
2022-08-22T11:45:38.259Z,13.95
2022-08-22T11:48:18.874Z,16.93
2022-08-22T11:51:00.385Z,15.45
2022-08-22T11:53:41.460Z,17.48
2022-08-22T11:56:19.744Z,15.65
2022-08-22T11:59:04.227Z,19.85
2022-08-22T12:01:45.652Z,11.03
2022-08-22T12:04:23.754Z,10.20
2022-08-22T12:07:17.515Z,14.53
2022-08-22T12:10:15.856Z,20.62
2022-08-22T12:12:50.907Z,14.43
2022-08-22T12:15:41.223Z,12.37
2022-08-22T12:18:31.184Z,10.50
2022-08-22T12:21:11.570Z,13.15
2022-08-22T12:23:50.355Z,11.30
2022-08-22T12:26:37.859Z,12.25
2022-08-22T12:29:27.560Z,15.35
2022-08-22T12:32:32.340Z,11.40
2022-08-22T12:35:15.540Z,12.13
2022-08-22T12:38:28.823Z,10.03
2022-08-22T12:41:08.192Z,14.93
2022-08-22T12:43:57.131Z,18.12
2022-08-22T12:46:47.419Z,15.10
2022-08-22T12:49:30.271Z,12.98
2022-08-22T12:52:11.379Z,11.63
2022-08-22T12:54:49.707Z,14.55
2022-08-22T12:57:34.272Z,17.67
2022-08-22T13:02:53.128Z,11.08
2022-08-22T13:05:28.337Z,12.75
2022-08-22T13:08:06.615Z,8.85
2022-08-22T13:10:50.940Z,15.53
2022-08-22T13:16:17.608Z,13.62
2022-08-22T13:19:07.777Z,8.95
2022-08-22T13:21:40.788Z,9.28
2022-08-22T13:24:38.577Z,10.40
2022-08-22T13:26:59.589Z,10.50
2022-08-22T13:29:39.442Z,8.55
2022-08-22T13:32:14.809Z,11.55
2022-08-22T13:34:50.045Z,11.00
2022-08-22T13:37:28.361Z,11.28
2022-08-22T13:40:03.792Z,7.90
2022-08-22T13:42:39.958Z,6.12
2022-08-22T13:45:24.394Z,8.53
2022-08-22T13:48:03.515Z,12.73
2022-08-22T13:50:52.894Z,6.53
2022-08-22T13:53:15.290Z,13.13
2022-08-22T13:55:55.514Z,7.20
2022-08-22T13:58:40.330Z,11.10
2022-08-22T14:01:31.199Z,8.93
2022-08-22T14:04:36.271Z,9.98
2022-08-22T14:07:13.455Z,33.23
2022-08-22T14:09:53.300Z,13.30
2022-08-22T14:12:33.560Z,14.30
2022-08-22T14:15:10.690Z,31.02
2022-08-22T14:17:48.253Z,24.40
2022-08-22T14:20:32.668Z,8.00
2022-08-22T14:23:04.200Z,26.12
2022-08-22T14:25:40.199Z,11.80
2022-08-22T14:28:27.480Z,12.03
2022-08-22T14:31:14.540Z,6.78
2022-08-22T14:34:01.339Z,9.28
2022-08-22T14:36:52.395Z,10.28
2022-08-22T14:39:34.812Z,13.28
2022-08-22T14:42:11.180Z,8.63
2022-08-22T14:45:01.430Z,9.43
2022-08-22T14:48:31.578Z,13.85
2022-08-22T14:50:46.460Z,13.32
2022-08-22T14:53:25.099Z,10.72
2022-08-22T14:56:18.029Z,11.22
2022-08-22T14:58:59.827Z,8.03
2022-08-22T15:01:35.476Z,11.95
2022-08-22T15:04:19.260Z,5.65
2022-08-22T15:06:55.423Z,10.18
2022-08-22T15:09:34.132Z,8.58
2022-08-22T15:12:10.563Z,7.87
2022-08-22T15:14:52.213Z,14.93
2022-08-22T15:17:44.147Z,10.45
2022-08-22T15:20:27.789Z,13.75
2022-08-22T15:23:12.148Z,8.10
2022-08-22T15:25:48.303Z,9.98
2022-08-22T15:28:22.934Z,10.93
2022-08-22T15:31:04.014Z,9.50
2022-08-22T15:33:45.450Z,6.00
2022-08-22T15:36:27.791Z,7.65
2022-08-22T15:39:32.367Z,8.03
2022-08-22T15:42:07.043Z,7.53
2022-08-22T15:47:36.241Z,10.90
2022-08-22T15:50:15.439Z,7.95
2022-08-22T15:53:11.462Z,12.28
2022-08-22T15:56:06.948Z,9.50
2022-08-22T15:58:48.110Z,17.60
2022-08-22T16:01:24.864Z,13.83
2022-08-22T16:04:06.067Z,11.90
2022-08-22T16:06:58.250Z,12.05
2022-08-22T16:09:43.554Z,11.33
2022-08-22T16:12:34.944Z,6.50
2022-08-22T16:15:10.682Z,12.15
2022-08-22T16:17:47.125Z,11.53
2022-08-22T16:20:24.607Z,9.00
2022-08-22T16:23:03.295Z,9.03
2022-08-22T16:25:50.563Z,13.90
2022-08-22T16:28:57.355Z,7.75
2022-08-22T16:31:27.658Z,10.65
2022-08-22T16:34:18.340Z,7.58
2022-08-22T16:37:11.036Z,8.45
2022-08-22T16:40:08.428Z,12.05
2022-08-22T16:42:48.542Z,9.25
2022-08-22T16:45:35.865Z,7.53
2022-08-22T16:48:33.544Z,9.45
2022-08-22T16:51:12.131Z,10.48
2022-08-22T16:54:09.543Z,16.62
2022-08-22T16:56:50.826Z,12.45
2022-08-22T16:59:25.920Z,8.35
2022-08-22T17:02:07.121Z,7.60
2022-08-22T17:04:48.312Z,10.63
2022-08-22T17:07:46.497Z,5.55
2022-08-22T17:10:42.567Z,8.58
2022-08-22T17:13:33.057Z,11.93
2022-08-22T17:16:12.411Z,8.50
2022-08-22T17:18:56.441Z,8.18
2022-08-22T17:21:34.634Z,5.87
2022-08-22T17:24:41.277Z,12.03
2022-08-22T17:27:36.023Z,7.47
2022-08-22T17:30:22.846Z,6.85
2022-08-22T17:33:06.633Z,8.25
2022-08-22T17:36:26.634Z,6.78
2022-08-22T17:39:06.304Z,8.90
2022-08-22T17:41:56.144Z,9.05
2022-08-22T17:44:43.459Z,10.68
2022-08-22T17:47:20.532Z,34.15
2022-08-22T17:50:00.726Z,7.47
2022-08-22T17:52:39.117Z,13.93
2022-08-22T17:55:41.158Z,17.35
2022-08-22T17:58:35.691Z,10.55
2022-08-22T18:00:55.389Z,6.62
2022-08-22T18:03:36.330Z,9.85
2022-08-22T18:06:26.656Z,14.05
2022-08-22T18:09:17.079Z,10.78
2022-08-22T18:11:59.335Z,9.20
2022-08-22T18:14:49.825Z,9.08
2022-08-22T18:17:30.499Z,12.98
2022-08-22T18:20:11.277Z,10.30
2022-08-22T18:22:49.429Z,18.40
2022-08-22T18:25:24.506Z,8.35
2022-08-22T18:28:17.519Z,11.53
2022-08-22T18:31:04.393Z,8.58
2022-08-22T18:33:42.539Z,10.03
2022-08-22T18:36:34.172Z,6.15
2022-08-22T18:39:18.453Z,12.53
2022-08-22T18:42:02.803Z,13.72
2022-08-22T18:44:38.900Z,10.53
2022-08-22T18:47:20.007Z,8.60
2022-08-22T18:49:54.814Z,5.60
2022-08-22T18:52:29.910Z,8.58
2022-08-22T18:55:24.365Z,7.45
2022-08-22T18:58:15.909Z,11.90
2022-08-22T19:00:54.050Z,14.70
2022-08-22T19:03:57.719Z,8.28
2022-08-22T19:06:56.897Z,9.88
2022-08-22T19:09:44.635Z,8.50
2022-08-22T19:12:28.685Z,9.53
2022-08-22T19:15:16.006Z,13.90
2022-08-22T19:17:59.483Z,7.37
2022-08-22T19:20:51.769Z,11.60
2022-08-22T19:23:40.380Z,8.53
2022-08-22T19:26:33.727Z,9.90
2022-08-22T19:29:22.593Z,9.58
2022-08-22T19:31:57.893Z,9.35
2022-08-22T19:34:33.258Z,9.03
2022-08-22T19:37:30.545Z,13.20
2022-08-22T19:40:00.611Z,10.72
2022-08-22T19:42:35.313Z,8.35
2022-08-22T19:45:10.296Z,9.23
2022-08-22T19:47:44.494Z,11.83
2022-08-22T19:50:23.248Z,11.30
2022-08-22T19:53:01.563Z,9.73
2022-08-22T19:55:42.724Z,6.60
2022-08-22T19:58:31.047Z,11.68
2022-08-22T20:01:00.723Z,9.05
2022-08-22T20:03:37.614Z,9.75
2022-08-22T20:06:40.612Z,8.53
2022-08-22T20:09:22.346Z,14.38
2022-08-22T20:12:03.510Z,12.45
2022-08-22T20:14:38.203Z,9.08
2022-08-22T20:17:13.521Z,13.38
2022-08-22T20:22:31.397Z,11.97
2022-08-22T20:25:35.385Z,13.28
2022-08-22T20:27:48.116Z,13.80
2022-08-22T20:30:30.015Z,20.23
2022-08-22T20:33:10.917Z,15.18
2022-08-22T20:35:46.384Z,15.60
2022-08-22T20:38:21.527Z,14.83
2022-08-22T20:41:22.080Z,15.95
2022-08-22T20:44:00.173Z,14.30
2022-08-22T20:46:57.675Z,14.75
2022-08-22T20:49:45.270Z,12.78
2022-08-22T20:52:29.247Z,16.57
2022-08-22T20:55:19.505Z,16.90
2022-08-22T20:57:58.046Z,19.07
2022-08-22T21:00:49.239Z,19.98
2022-08-22T21:03:45.347Z,12.60
2022-08-22T21:06:20.839Z,19.50
2022-08-22T21:08:56.530Z,17.50
2022-08-22T21:11:43.239Z,19.95
2022-08-22T21:14:24.340Z,19.70
2022-08-22T21:16:56.488Z,16.67
2022-08-22T21:19:32.649Z,13.08
2022-08-22T21:22:19.997Z,22.70
2022-08-22T21:24:52.096Z,16.40
2022-08-22T21:27:33.169Z,16.23
2022-08-22T21:30:08.829Z,16.82
2022-08-22T21:32:46.710Z,21.05
2022-08-22T21:35:33.865Z,18.40
2022-08-22T21:38:06.662Z,15.23
2022-08-22T21:40:39.869Z,14.87
2022-08-22T21:43:14.671Z,21.17
2022-08-22T21:45:46.971Z,17.65
2022-08-22T21:48:36.817Z,16.17
2022-08-22T21:51:40.455Z,19.15
2022-08-22T21:54:31.995Z,18.60
2022-08-22T21:57:12.937Z,28.07
2022-08-22T21:59:59.405Z,20.70
2022-08-22T22:02:37.453Z,18.95
2022-08-22T22:05:12.830Z,24.98
2022-08-22T22:07:46.424Z,21.80
2022-08-22T22:10:22.712Z,22.53
2022-08-22T22:12:58.712Z,25.70
2022-08-22T22:15:33.768Z,24.07
2022-08-22T22:18:06.846Z,26.68
2022-08-22T22:20:39.977Z,24.60
2022-08-22T22:23:12.101Z,25.37
2022-08-22T22:25:45.711Z,26.25
2022-08-22T22:28:23.694Z,28.00
2022-08-22T22:30:56.073Z,27.85
2022-08-22T22:33:31.017Z,31.27
2022-08-22T22:36:05.935Z,26.73
2022-08-22T22:38:41.349Z,30.08
2022-08-22T22:41:14.260Z,27.82
2022-08-22T22:43:47.556Z,26.57
2022-08-22T22:46:19.680Z,26.33
2022-08-22T22:48:52.078Z,28.12
2022-08-22T22:51:24.438Z,27.20
2022-08-22T22:53:57.929Z,29.63
2022-08-22T22:56:30.089Z,30.82
2022-08-22T22:59:13.262Z,28.07
2022-08-22T23:01:35.954Z,25.92
2022-08-22T23:04:08.284Z,25.55
2022-08-22T23:06:40.348Z,28.27
2022-08-22T23:09:12.365Z,32.67
2022-08-22T23:11:46.170Z,31.75
2022-08-22T23:14:18.366Z,25.80
2022-08-22T23:16:50.718Z,27.95
2022-08-22T23:19:22.964Z,26.07
2022-08-22T23:21:57.147Z,26.37
2022-08-22T23:24:31.227Z,29.07
2022-08-22T23:27:06.236Z,28.55
2022-08-22T23:29:42.250Z,30.97
2022-08-22T23:32:15.339Z,30.00
2022-08-22T23:34:48.890Z,27.50
2022-08-22T23:37:23.190Z,28.42
2022-08-22T23:42:26.983Z,27.15
2022-08-22T23:44:58.997Z,28.57
2022-08-22T23:47:31.444Z,24.65
2022-08-22T23:50:06.149Z,29.85
2022-08-22T23:52:37.203Z,26.00
2022-08-22T23:55:09.735Z,27.15
2022-08-22T23:57:41.830Z,26.80
